sensor_id;sensor_type;location;lat;lon;timestamp;pressure;altitude;pressure_sealevel;temperature;humidity
80397;BME280;69721;55.894;-3.052;2023-06-22T00:00:01;101221.74;;;18.98;43.75
80397;BME280;69721;55.894;-3.052;2023-06-22T00:02:27;101221.80;;;18.44;44.45
80397;BME280;69721;55.894;-3.052;2023-06-22T00:04:52;101218.66;;;18.96;44.10
80397;BME280;69721;55.894;-3.052;2023-06-22T00:07:17;101218.53;;;19.34;44.08
80397;BME280;69721;55.894;-3.052;2023-06-22T00:09:42;101220.52;;;18.81;44.41
80397;BME280;69721;55.894;-3.052;2023-06-22T00:12:08;101222.80;;;18.56;44.58
80397;BME280;69721;55.894;-3.052;2023-06-22T00:14:33;101225.11;;;18.77;45.06
80397;BME280;69721;55.894;-3.052;2023-06-22T00:16:59;101224.89;;;18.74;44.51
80397;BME280;69721;55.894;-3.052;2023-06-22T00:19:24;101225.85;;;19.50;43.51
80397;BME280;69721;55.894;-3.052;2023-06-22T00:21:50;101224.62;;;19.55;42.54
80397;BME280;69721;55.894;-3.052;2023-06-22T00:24:15;101225.63;;;19.26;42.92
80397;BME280;69721;55.894;-3.052;2023-06-22T00:26:40;101230.12;;;18.83;43.63
80397;BME280;69721;55.894;-3.052;2023-06-22T00:29:06;101232.86;;;19.34;43.28
80397;BME280;69721;55.894;-3.052;2023-06-22T00:31:31;101233.90;;;19.07;42.96
80397;BME280;69721;55.894;-3.052;2023-06-22T00:33:56;101242.92;;;18.60;43.24
80397;BME280;69721;55.894;-3.052;2023-06-22T00:36:22;101244.76;;;19.14;43.03
80397;BME280;69721;55.894;-3.052;2023-06-22T00:38:47;101248.13;;;18.28;43.83
80397;BME280;69721;55.894;-3.052;2023-06-22T00:41:13;101247.94;;;18.42;43.47
80397;BME280;69721;55.894;-3.052;2023-06-22T00:43:38;101248.26;;;18.78;42.90
80397;BME280;69721;55.894;-3.052;2023-06-22T00:46:03;101258.07;;;19.01;42.48
80397;BME280;69721;55.894;-3.052;2023-06-22T00:48:29;101259.41;;;18.89;42.69
80397;BME280;69721;55.894;-3.052;2023-06-22T00:50:55;101262.30;;;19.02;42.13
80397;BME280;69721;55.894;-3.052;2023-06-22T00:53:20;101263.47;;;19.00;42.89
80397;BME280;69721;55.894;-3.052;2023-06-22T00:55:46;101266.84;;;18.54;43.41
80397;BME280;69721;55.894;-3.052;2023-06-22T00:58:12;101268.83;;;18.11;44.42
80397;BME280;69721;55.894;-3.052;2023-06-22T01:00:37;101270.34;;;18.51;43.83
80397;BME280;69721;55.894;-3.052;2023-06-22T01:03:03;101276.44;;;18.62;43.42
80397;BME280;69721;55.894;-3.052;2023-06-22T01:05:27;101275.40;;;18.44;43.51
80397;BME280;69721;55.894;-3.052;2023-06-22T01:08:03;101275.16;;;18.09;44.72
80397;BME280;69721;55.894;-3.052;2023-06-22T01:10:23;101271.93;;;17.86;44.95
80397;BME280;69721;55.894;-3.052;2023-06-22T01:12:47;101273.50;;;18.03;44.93
80397;BME280;69721;55.894;-3.052;2023-06-22T01:15:13;101271.15;;;18.39;44.22
80397;BME280;69721;55.894;-3.052;2023-06-22T01:17:35;101276.09;;;17.91;44.94
80397;BME280;69721;55.894;-3.052;2023-06-22T01:20:00;101279.24;;;17.97;45.49
80397;BME280;69721;55.894;-3.052;2023-06-22T01:22:30;101282.51;;;18.36;45.50
80397;BME280;69721;55.894;-3.052;2023-06-22T01:24:59;101287.56;;;17.96;45.75
80397;BME280;69721;55.894;-3.052;2023-06-22T01:27:28;101289.99;;;17.65;46.56
80397;BME280;69721;55.894;-3.052;2023-06-22T01:29:41;101293.37;;;18.01;46.28
80397;BME280;69721;55.894;-3.052;2023-06-22T01:32:07;101295.08;;;17.94;46.59
80397;BME280;69721;55.894;-3.052;2023-06-22T01:34:32;101295.83;;;17.78;46.11
80397;BME280;69721;55.894;-3.052;2023-06-22T01:36:59;101297.00;;;17.79;46.47
80397;BME280;69721;55.894;-3.052;2023-06-22T01:39:23;101296.48;;;16.91;48.36
80397;BME280;69721;55.894;-3.052;2023-06-22T01:41:48;101298.57;;;16.78;49.12
80397;BME280;69721;55.894;-3.052;2023-06-22T01:44:13;101303.20;;;16.33;49.94
80397;BME280;69721;55.894;-3.052;2023-06-22T01:46:39;101307.19;;;17.11;48.79
80397;BME280;69721;55.894;-3.052;2023-06-22T01:49:04;101310.34;;;16.79;48.67
80397;BME280;69721;55.894;-3.052;2023-06-22T01:51:30;101308.65;;;17.04;48.03
80397;BME280;69721;55.894;-3.052;2023-06-22T01:53:55;101312.34;;;17.29;47.49
80397;BME280;69721;55.894;-3.052;2023-06-22T01:56:20;101314.26;;;17.51;47.13
80397;BME280;69721;55.894;-3.052;2023-06-22T01:58:50;101311.46;;;17.02;47.89
80397;BME280;69721;55.894;-3.052;2023-06-22T02:01:12;101314.62;;;16.98;47.25
80397;BME280;69721;55.894;-3.052;2023-06-22T02:03:40;101319.29;;;17.54;46.81
80397;BME280;69721;55.894;-3.052;2023-06-22T02:06:05;101319.70;;;18.11;45.97
80397;BME280;69721;55.894;-3.052;2023-06-22T02:08:30;101322.74;;;17.93;45.75
80397;BME280;69721;55.894;-3.052;2023-06-22T02:10:53;101325.99;;;17.34;46.55
80397;BME280;69721;55.894;-3.052;2023-06-22T02:13:18;101329.01;;;16.84;47.88
80397;BME280;69721;55.894;-3.052;2023-06-22T02:15:43;101329.01;;;17.56;46.07
80397;BME280;69721;55.894;-3.052;2023-06-22T02:18:08;101329.94;;;17.59;45.96
80397;BME280;69721;55.894;-3.052;2023-06-22T02:20:37;101331.92;;;17.35;45.98
80397;BME280;69721;55.894;-3.052;2023-06-22T02:22:59;101329.47;;;17.34;45.77
80397;BME280;69721;55.894;-3.052;2023-06-22T02:25:24;101331.76;;;17.15;46.44
80397;BME280;69721;55.894;-3.052;2023-06-22T02:27:50;101327.82;;;17.69;45.47
80397;BME280;69721;55.894;-3.052;2023-06-22T02:30:15;101327.59;;;17.38;45.46
80397;BME280;69721;55.894;-3.052;2023-06-22T02:32:41;101329.73;;;17.13;45.94
80397;BME280;69721;55.894;-3.052;2023-06-22T02:35:06;101332.49;;;17.16;45.61
80397;BME280;69721;55.894;-3.052;2023-06-22T02:37:31;101334.72;;;17.29;45.79
80397;BME280;69721;55.894;-3.052;2023-06-22T02:39:57;101334.30;;;17.29;44.95
80397;BME280;69721;55.894;-3.052;2023-06-22T02:42:22;101333.17;;;17.53;45.04
80397;BME280;69721;55.894;-3.052;2023-06-22T02:44:48;101332.71;;;17.62;44.92
80397;BME280;69721;55.894;-3.052;2023-06-22T02:47:15;101335.15;;;17.45;45.08
80397;BME280;69721;55.894;-3.052;2023-06-22T02:49:40;101337.11;;;16.57;46.61
80397;BME280;69721;55.894;-3.052;2023-06-22T02:52:05;101338.16;;;16.83;46.69
80397;BME280;69721;55.894;-3.052;2023-06-22T02:54:31;101339.30;;;16.50;47.06
80397;BME280;69721;55.894;-3.052;2023-06-22T02:56:56;101339.88;;;16.33;47.04
80397;BME280;69721;55.894;-3.052;2023-06-22T02:59:21;101340.27;;;16.72;46.90
80397;BME280;69721;55.894;-3.052;2023-06-22T03:01:47;101344.09;;;16.55;46.62
80397;BME280;69721;55.894;-3.052;2023-06-22T03:04:13;101346.33;;;16.75;46.93
80397;BME280;69721;55.894;-3.052;2023-06-22T03:06:38;101348.55;;;16.74;46.30
80397;BME280;69721;55.894;-3.052;2023-06-22T03:09:04;101349.97;;;16.60;46.54
80397;BME280;69721;55.894;-3.052;2023-06-22T03:11:29;101349.04;;;17.15;46.05
80397;BME280;69721;55.894;-3.052;2023-06-22T03:13:54;101353.92;;;16.86;46.31
80397;BME280;69721;55.894;-3.052;2023-06-22T03:16:19;101356.22;;;16.57;46.14
80397;BME280;69721;55.894;-3.052;2023-06-22T03:18:45;101360.93;;;16.64;46.10
80397;BME280;69721;55.894;-3.052;2023-06-22T03:21:10;101363.17;;;16.54;46.47
80397;BME280;69721;55.894;-3.052;2023-06-22T03:23:36;101366.07;;;16.42;46.49
80397;BME280;69721;55.894;-3.052;2023-06-22T03:26:01;101369.93;;;16.14;46.84
80397;BME280;69721;55.894;-3.052;2023-06-22T03:28:27;101363.18;;;16.71;46.05
80397;BME280;69721;55.894;-3.052;2023-06-22T03:30:52;101365.19;;;16.54;46.50
80397;BME280;69721;55.894;-3.052;2023-06-22T03:33:17;101367.74;;;16.18;46.47
80397;BME280;69721;55.894;-3.052;2023-06-22T03:35:43;101369.99;;;16.45;46.43
80397;BME280;69721;55.894;-3.052;2023-06-22T03:38:08;101370.76;;;16.30;46.58
80397;BME280;69721;55.894;-3.052;2023-06-22T03:40:34;101374.07;;;16.11;46.82
80397;BME280;69721;55.894;-3.052;2023-06-22T03:42:59;101375.15;;;16.02;47.19
80397;BME280;69721;55.894;-3.052;2023-06-22T03:45:25;101377.12;;;15.33;48.82
80397;BME280;69721;55.894;-3.052;2023-06-22T03:47:51;101375.77;;;15.46;48.49
80397;BME280;69721;55.894;-3.052;2023-06-22T03:50:16;101374.31;;;15.23;49.25
80397;BME280;69721;55.894;-3.052;2023-06-22T03:52:41;101376.17;;;15.13;49.56
80397;BME280;69721;55.894;-3.052;2023-06-22T03:55:07;101380.42;;;14.87;49.89
80397;BME280;69721;55.894;-3.052;2023-06-22T03:57:32;101383.90;;;15.45;48.60
80397;BME280;69721;55.894;-3.052;2023-06-22T03:59:58;101387.21;;;15.17;49.14
80397;BME280;69721;55.894;-3.052;2023-06-22T04:02:23;101392.14;;;15.29;48.36
80397;BME280;69721;55.894;-3.052;2023-06-22T04:04:49;101394.01;;;15.70;48.13
80397;BME280;69721;55.894;-3.052;2023-06-22T04:07:14;101395.33;;;15.00;48.34
80397;BME280;69721;55.894;-3.052;2023-06-22T04:09:39;101395.65;;;15.29;48.17
80397;BME280;69721;55.894;-3.052;2023-06-22T04:12:06;101398.35;;;15.52;47.71
80397;BME280;69721;55.894;-3.052;2023-06-22T04:14:30;101400.06;;;15.07;48.80
80397;BME280;69721;55.894;-3.052;2023-06-22T04:16:57;101403.30;;;15.20;48.42
80397;BME280;69721;55.894;-3.052;2023-06-22T04:19:21;101405.85;;;15.74;47.64
80397;BME280;69721;55.894;-3.052;2023-06-22T04:21:46;101403.87;;;16.02;46.52
80397;BME280;69721;55.894;-3.052;2023-06-22T04:24:12;101404.14;;;15.66;46.87
80397;BME280;69721;55.894;-3.052;2023-06-22T04:26:38;101404.17;;;15.28;48.07
80397;BME280;69721;55.894;-3.052;2023-06-22T04:29:04;101403.32;;;14.74;48.18
80397;BME280;69721;55.894;-3.052;2023-06-22T04:31:29;101406.34;;;15.24;47.54
80397;BME280;69721;55.894;-3.052;2023-06-22T04:33:54;101408.39;;;15.56;47.01
80397;BME280;69721;55.894;-3.052;2023-06-22T04:36:19;101413.36;;;15.53;47.20
80397;BME280;69721;55.894;-3.052;2023-06-22T04:38:45;101409.31;;;15.42;47.14
80397;BME280;69721;55.894;-3.052;2023-06-22T04:41:10;101409.08;;;15.93;46.37
80397;BME280;69721;55.894;-3.052;2023-06-22T04:43:36;101410.11;;;15.92;46.31
80397;BME280;69721;55.894;-3.052;2023-06-22T04:46:01;101412.70;;;16.52;45.21
80397;BME280;69721;55.894;-3.052;2023-06-22T04:48:26;101414.77;;;15.96;45.92
80397;BME280;69721;55.894;-3.052;2023-06-22T04:50:52;101413.19;;;15.60;46.51
80397;BME280;69721;55.894;-3.052;2023-06-22T04:53:17;101414.72;;;15.50;47.57
80397;BME280;69721;55.894;-3.052;2023-06-22T04:55:43;101420.72;;;15.67;47.32
80397;BME280;69721;55.894;-3.052;2023-06-22T04:58:08;101423.29;;;15.56;47.06
80397;BME280;69721;55.894;-3.052;2023-06-22T05:00:34;101421.47;;;15.51;47.26
80397;BME280;69721;55.894;-3.052;2023-06-22T05:02:59;101421.62;;;15.71;46.48
80397;BME280;69721;55.894;-3.052;2023-06-22T05:05:24;101425.03;;;15.66;46.31
80397;BME280;69721;55.894;-3.052;2023-06-22T05:07:51;101424.78;;;16.57;45.06
80397;BME280;69721;55.894;-3.052;2023-06-22T05:10:15;101425.69;;;16.98;44.21
80397;BME280;69721;55.894;-3.052;2023-06-22T05:12:41;101426.69;;;16.30;44.80
80397;BME280;69721;55.894;-3.052;2023-06-22T05:15:07;101429.03;;;15.53;46.50
80397;BME280;69721;55.894;-3.052;2023-06-22T05:17:31;101426.85;;;16.16;45.79
80397;BME280;69721;55.894;-3.052;2023-06-22T05:19:56;101428.54;;;16.24;45.86
80397;BME280;69721;55.894;-3.052;2023-06-22T05:22:22;101431.85;;;15.86;46.51
80397;BME280;69721;55.894;-3.052;2023-06-22T05:24:47;101438.39;;;15.90;46.52
80397;BME280;69721;55.894;-3.052;2023-06-22T05:27:13;101437.04;;;16.16;45.97
80397;BME280;69721;55.894;-3.052;2023-06-22T05:29:38;101439.60;;;16.06;46.04
80397;BME280;69721;55.894;-3.052;2023-06-22T05:32:04;101440.37;;;16.50;45.22
80397;BME280;69721;55.894;-3.052;2023-06-22T05:34:29;101444.44;;;16.76;45.24
80397;BME280;69721;55.894;-3.052;2023-06-22T05:36:54;101443.93;;;16.47;45.40
80397;BME280;69721;55.894;-3.052;2023-06-22T05:39:20;101444.47;;;16.33;45.80
80397;BME280;69721;55.894;-3.052;2023-06-22T05:41:46;101442.76;;;16.80;45.44
80397;BME280;69721;55.894;-3.052;2023-06-22T05:44:10;101440.84;;;16.74;44.41
80397;BME280;69721;55.894;-3.052;2023-06-22T05:46:36;101441.50;;;16.98;44.49
80397;BME280;69721;55.894;-3.052;2023-06-22T05:49:02;101445.86;;;16.82;44.95
80397;BME280;69721;55.894;-3.052;2023-06-22T05:51:27;101448.41;;;16.24;45.79
80397;BME280;69721;55.894;-3.052;2023-06-22T05:53:53;101448.34;;;16.32;45.44
80397;BME280;69721;55.894;-3.052;2023-06-22T05:56:18;101447.31;;;16.88;45.20
80397;BME280;69721;55.894;-3.052;2023-06-22T05:58:44;101442.76;;;16.75;45.08
80397;BME280;69721;55.894;-3.052;2023-06-22T06:01:09;101441.20;;;17.16;45.07
80397;BME280;69721;55.894;-3.052;2023-06-22T06:03:34;101442.75;;;16.89;44.71
80397;BME280;69721;55.894;-3.052;2023-06-22T06:06:00;101451.23;;;16.78;45.49
80397;BME280;69721;55.894;-3.052;2023-06-22T06:08:26;101451.98;;;16.99;46.05
80397;BME280;69721;55.894;-3.052;2023-06-22T06:10:52;101445.86;;;17.50;44.99
80397;BME280;69721;55.894;-3.052;2023-06-22T06:13:17;101447.43;;;17.29;45.48
80397;BME280;69721;55.894;-3.052;2023-06-22T06:15:42;101440.97;;;17.55;44.70
80397;BME280;69721;55.894;-3.052;2023-06-22T06:18:08;101438.79;;;17.97;43.94
80397;BME280;69721;55.894;-3.052;2023-06-22T06:20:33;101438.50;;;17.69;44.41
80397;BME280;69721;55.894;-3.052;2023-06-22T06:22:59;101438.65;;;17.69;44.61
80397;BME280;69721;55.894;-3.052;2023-06-22T06:25:24;101438.34;;;17.92;44.02
80397;BME280;69721;55.894;-3.052;2023-06-22T06:27:51;101443.00;;;17.53;44.75
80397;BME280;69721;55.894;-3.052;2023-06-22T06:30:16;101443.37;;;18.02;43.66
80397;BME280;69721;55.894;-3.052;2023-06-22T06:32:41;101440.70;;;18.10;43.70
80397;BME280;69721;55.894;-3.052;2023-06-22T06:35:07;101440.10;;;18.08;43.34
80397;BME280;69721;55.894;-3.052;2023-06-22T06:37:35;101441.18;;;18.13;43.39
80397;BME280;69721;55.894;-3.052;2023-06-22T06:39:58;101446.87;;;17.92;42.68
80397;BME280;69721;55.894;-3.052;2023-06-22T06:42:23;101445.22;;;17.78;43.02
80397;BME280;69721;55.894;-3.052;2023-06-22T06:44:49;101447.18;;;17.59;43.91
80397;BME280;69721;55.894;-3.052;2023-06-22T06:47:14;101452.28;;;16.81;45.05
80397;BME280;69721;55.894;-3.052;2023-06-22T06:49:39;101451.77;;;17.06;43.87
80397;BME280;69721;55.894;-3.052;2023-06-22T06:52:06;101456.03;;;16.92;44.08
80397;BME280;69721;55.894;-3.052;2023-06-22T06:54:31;101458.81;;;16.88;44.91
80397;BME280;69721;55.894;-3.052;2023-06-22T06:56:56;101453.19;;;17.15;43.85
80397;BME280;69721;55.894;-3.052;2023-06-22T06:59:21;101448.58;;;17.83;42.92
80397;BME280;69721;55.894;-3.052;2023-06-22T07:01:47;101451.75;;;17.88;42.52
80397;BME280;69721;55.894;-3.052;2023-06-22T07:04:12;101457.36;;;16.57;43.44
80397;BME280;69721;55.894;-3.052;2023-06-22T07:06:37;101450.35;;;17.07;42.05
80397;BME280;69721;55.894;-3.052;2023-06-22T07:09:03;101460.31;;;16.65;42.68
80397;BME280;69721;55.894;-3.052;2023-06-22T07:11:29;101456.09;;;16.19;43.18
80397;BME280;69721;55.894;-3.052;2023-06-22T07:13:54;101452.49;;;16.20;43.56
80397;BME280;69721;55.894;-3.052;2023-06-22T07:16:20;101453.78;;;16.12;42.94
80397;BME280;69721;55.894;-3.052;2023-06-22T07:18:45;101456.08;;;16.70;42.36
80397;BME280;69721;55.894;-3.052;2023-06-22T07:21:11;101456.77;;;15.90;44.31
80397;BME280;69721;55.894;-3.052;2023-06-22T07:23:36;101453.53;;;16.49;42.89
80397;BME280;69721;55.894;-3.052;2023-06-22T07:26:01;101454.63;;;16.68;41.11
80397;BME280;69721;55.894;-3.052;2023-06-22T07:28:27;101453.51;;;17.15;41.57
80397;BME280;69721;55.894;-3.052;2023-06-22T07:30:52;101462.53;;;15.60;43.31
80397;BME280;69721;55.894;-3.052;2023-06-22T07:33:18;101463.40;;;15.47;43.85
80397;BME280;69721;55.894;-3.052;2023-06-22T07:35:43;101465.77;;;16.38;42.63
80397;BME280;69721;55.894;-3.052;2023-06-22T07:38:09;101458.80;;;19.03;39.07
80397;BME280;69721;55.894;-3.052;2023-06-22T07:40:34;101458.37;;;20.80;35.68
80397;BME280;69721;55.894;-3.052;2023-06-22T07:42:59;101460.64;;;20.55;33.77
80397;BME280;69721;55.894;-3.052;2023-06-22T07:45:26;101465.88;;;19.90;35.99
80397;BME280;69721;55.894;-3.052;2023-06-22T07:47:51;101464.40;;;21.07;34.00
80397;BME280;69721;55.894;-3.052;2023-06-22T07:50:16;101471.39;;;19.73;34.59
80397;BME280;69721;55.894;-3.052;2023-06-22T07:52:42;101471.85;;;18.68;36.44
80397;BME280;69721;55.894;-3.052;2023-06-22T07:55:08;101468.16;;;19.86;34.79
80397;BME280;69721;55.894;-3.052;2023-06-22T07:57:32;101469.21;;;18.24;36.86
80397;BME280;69721;55.894;-3.052;2023-06-22T07:59:58;101466.73;;;19.30;35.26
80397;BME280;69721;55.894;-3.052;2023-06-22T08:02:23;101470.03;;;17.27;39.10
80397;BME280;69721;55.894;-3.052;2023-06-22T08:04:49;101466.89;;;17.98;38.62
80397;BME280;69721;55.894;-3.052;2023-06-22T08:07:15;101473.66;;;15.83;41.67
80397;BME280;69721;55.894;-3.052;2023-06-22T08:09:46;101469.87;;;17.43;39.34
80397;BME280;69721;55.894;-3.052;2023-06-22T08:12:06;101469.21;;;17.53;39.89
80397;BME280;69721;55.894;-3.052;2023-06-22T08:14:31;101473.86;;;17.27;40.23
80397;BME280;69721;55.894;-3.052;2023-06-22T08:16:56;101473.46;;;18.25;38.83
80397;BME280;69721;55.894;-3.052;2023-06-22T08:19:22;101477.10;;;18.52;38.58
80397;BME280;69721;55.894;-3.052;2023-06-22T08:21:47;101477.66;;;18.25;40.31
80397;BME280;69721;55.894;-3.052;2023-06-22T08:24:12;101475.14;;;18.17;38.93
80397;BME280;69721;55.894;-3.052;2023-06-22T08:26:40;101472.73;;;18.59;38.22
80397;BME280;69721;55.894;-3.052;2023-06-22T08:29:04;101478.75;;;18.76;38.41
80397;BME280;69721;55.894;-3.052;2023-06-22T08:31:30;101480.01;;;17.81;38.38
80397;BME280;69721;55.894;-3.052;2023-06-22T08:33:54;101487.25;;;16.00;42.09
80397;BME280;69721;55.894;-3.052;2023-06-22T08:36:19;101482.35;;;17.52;39.25
80397;BME280;69721;55.894;-3.052;2023-06-22T08:38:44;101482.81;;;18.24;37.97
80397;BME280;69721;55.894;-3.052;2023-06-22T08:41:10;101477.96;;;18.41;36.92
80397;BME280;69721;55.894;-3.052;2023-06-22T08:43:35;101476.36;;;18.80;37.84
80397;BME280;69721;55.894;-3.052;2023-06-22T08:46:00;101477.29;;;18.31;38.48
80397;BME280;69721;55.894;-3.052;2023-06-22T08:48:26;101477.03;;;19.49;36.46
80397;BME280;69721;55.894;-3.052;2023-06-22T08:50:51;101489.52;;;17.06;41.13
80397;BME280;69721;55.894;-3.052;2023-06-22T08:53:16;101481.75;;;18.07;38.17
80397;BME280;69721;55.894;-3.052;2023-06-22T08:55:42;101482.54;;;18.91;35.81
80397;BME280;69721;55.894;-3.052;2023-06-22T08:58:07;101486.76;;;18.35;35.91
80397;BME280;69721;55.894;-3.052;2023-06-22T09:00:33;101483.30;;;18.38;37.14
80397;BME280;69721;55.894;-3.052;2023-06-22T09:02:58;101485.33;;;19.36;37.02
80397;BME280;69721;55.894;-3.052;2023-06-22T09:05:24;101478.69;;;19.78;34.30
80397;BME280;69721;55.894;-3.052;2023-06-22T09:07:49;101479.88;;;20.89;33.93
80397;BME280;69721;55.894;-3.052;2023-06-22T09:10:14;101479.59;;;19.81;36.47
80397;BME280;69721;55.894;-3.052;2023-06-22T09:12:40;101478.14;;;19.35;35.84
80397;BME280;69721;55.894;-3.052;2023-06-22T09:15:06;101488.30;;;17.07;37.06
80397;BME280;69721;55.894;-3.052;2023-06-22T09:17:30;101486.76;;;18.79;36.00
80397;BME280;69721;55.894;-3.052;2023-06-22T09:19:56;101487.82;;;18.04;35.89
80397;BME280;69721;55.894;-3.052;2023-06-22T09:22:21;101489.13;;;19.36;34.28
80397;BME280;69721;55.894;-3.052;2023-06-22T09:24:47;101491.38;;;18.53;35.77
80397;BME280;69721;55.894;-3.052;2023-06-22T09:27:12;101492.08;;;18.90;35.19
80397;BME280;69721;55.894;-3.052;2023-06-22T09:29:37;101489.71;;;19.80;35.41
80397;BME280;69721;55.894;-3.052;2023-06-22T09:32:02;101490.46;;;19.42;35.95
80397;BME280;69721;55.894;-3.052;2023-06-22T09:34:28;101489.37;;;20.46;33.64
80397;BME280;69721;55.894;-3.052;2023-06-22T09:36:54;101494.65;;;17.95;35.81
80397;BME280;69721;55.894;-3.052;2023-06-22T09:39:19;101501.59;;;18.31;35.33
80397;BME280;69721;55.894;-3.052;2023-06-22T09:41:44;101502.67;;;17.79;35.94
80397;BME280;69721;55.894;-3.052;2023-06-22T09:44:10;101508.32;;;18.61;34.03
80397;BME280;69721;55.894;-3.052;2023-06-22T09:46:35;101509.59;;;17.80;34.51
80397;BME280;69721;55.894;-3.052;2023-06-22T09:49:01;101507.66;;;20.23;34.58
80397;BME280;69721;55.894;-3.052;2023-06-22T09:51:26;101512.09;;;20.78;32.71
80397;BME280;69721;55.894;-3.052;2023-06-22T09:53:52;101502.51;;;21.91;31.44
80397;BME280;69721;55.894;-3.052;2023-06-22T09:56:17;101497.89;;;21.90;30.80
80397;BME280;69721;55.894;-3.052;2023-06-22T09:58:43;101503.29;;;21.53;31.62
80397;BME280;69721;55.894;-3.052;2023-06-22T10:01:07;101506.97;;;22.28;31.15
80397;BME280;69721;55.894;-3.052;2023-06-22T10:03:33;101504.48;;;22.13;31.57
80397;BME280;69721;55.894;-3.052;2023-06-22T10:05:58;101501.83;;;22.56;30.39
80397;BME280;69721;55.894;-3.052;2023-06-22T10:08:23;101502.08;;;23.02;30.52
80397;BME280;69721;55.894;-3.052;2023-06-22T10:10:49;101503.16;;;20.14;32.27
80397;BME280;69721;55.894;-3.052;2023-06-22T10:13:14;101505.58;;;18.97;33.71
80397;BME280;69721;55.894;-3.052;2023-06-22T10:15:39;101505.69;;;18.42;35.47
80397;BME280;69721;55.894;-3.052;2023-06-22T10:18:05;101503.07;;;18.45;35.50
80397;BME280;69721;55.894;-3.052;2023-06-22T10:20:30;101499.62;;;17.68;36.21
80397;BME280;69721;55.894;-3.052;2023-06-22T10:22:55;101498.64;;;20.21;32.93
80397;BME280;69721;55.894;-3.052;2023-06-22T10:25:21;101502.67;;;20.48;32.27
80397;BME280;69721;55.894;-3.052;2023-06-22T10:27:46;101492.72;;;21.77;31.44
80397;BME280;69721;55.894;-3.052;2023-06-22T10:30:12;101489.78;;;22.62;30.24
80397;BME280;69721;55.894;-3.052;2023-06-22T10:32:38;101499.73;;;21.06;29.21
80397;BME280;69721;55.894;-3.052;2023-06-22T10:35:02;101499.13;;;20.49;32.87
80397;BME280;69721;55.894;-3.052;2023-06-22T10:37:27;101491.49;;;21.43;30.83
80397;BME280;69721;55.894;-3.052;2023-06-22T10:39:53;101495.26;;;18.50;34.15
80397;BME280;69721;55.894;-3.052;2023-06-22T10:42:18;101493.74;;;22.29;31.81
80397;BME280;69721;55.894;-3.052;2023-06-22T10:44:43;101503.67;;;20.77;30.77
80397;BME280;69721;55.894;-3.052;2023-06-22T10:47:09;101508.73;;;19.08;32.92
80397;BME280;69721;55.894;-3.052;2023-06-22T10:49:34;101499.83;;;19.68;32.93
80397;BME280;69721;55.894;-3.052;2023-06-22T10:51:59;101502.62;;;19.85;32.72
80397;BME280;69721;55.894;-3.052;2023-06-22T10:54:25;101502.91;;;19.97;31.64
80397;BME280;69721;55.894;-3.052;2023-06-22T10:56:50;101493.43;;;22.27;29.93
80397;BME280;69721;55.894;-3.052;2023-06-22T10:59:16;101506.90;;;20.34;33.03
80397;BME280;69721;55.894;-3.052;2023-06-22T11:01:41;101498.71;;;19.97;32.29
80397;BME280;69721;55.894;-3.052;2023-06-22T11:04:06;101500.48;;;21.71;31.39
80397;BME280;69721;55.894;-3.052;2023-06-22T11:06:33;101507.03;;;21.00;30.70
80397;BME280;69721;55.894;-3.052;2023-06-22T11:08:59;101502.45;;;21.76;32.32
80397;BME280;69721;55.894;-3.052;2023-06-22T11:11:25;101501.17;;;19.93;31.59
80397;BME280;69721;55.894;-3.052;2023-06-22T11:13:49;101507.54;;;21.03;31.68
80397;BME280;69721;55.894;-3.052;2023-06-22T11:16:15;101494.65;;;22.55;30.36
80397;BME280;69721;55.894;-3.052;2023-06-22T11:18:41;101491.55;;;23.48;30.05
80397;BME280;69721;55.894;-3.052;2023-06-22T11:21:06;101493.25;;;23.67;29.09
80397;BME280;69721;55.894;-3.052;2023-06-22T11:23:31;101490.13;;;22.37;28.32
80397;BME280;69721;55.894;-3.052;2023-06-22T11:25:57;101495.07;;;24.44;28.42
80397;BME280;69721;55.894;-3.052;2023-06-22T11:28:22;101495.51;;;21.36;30.44
80397;BME280;69721;55.894;-3.052;2023-06-22T11:30:47;101507.38;;;19.06;33.94
80397;BME280;69721;55.894;-3.052;2023-06-22T11:33:13;101502.72;;;19.05;35.38
80397;BME280;69721;55.894;-3.052;2023-06-22T11:35:38;101507.24;;;21.34;31.75
80397;BME280;69721;55.894;-3.052;2023-06-22T11:38:03;101495.27;;;22.92;30.75
80397;BME280;69721;55.894;-3.052;2023-06-22T11:40:29;101501.14;;;21.41;31.38
80397;BME280;69721;55.894;-3.052;2023-06-22T11:42:54;101493.75;;;22.66;28.04
80397;BME280;69721;55.894;-3.052;2023-06-22T11:45:19;101495.43;;;23.15;29.49
80397;BME280;69721;55.894;-3.052;2023-06-22T11:47:45;101497.24;;;23.60;30.03
80397;BME280;69721;55.894;-3.052;2023-06-22T11:50:10;101495.47;;;21.94;31.20
80397;BME280;69721;55.894;-3.052;2023-06-22T11:52:35;101496.62;;;21.31;31.95
80397;BME280;69721;55.894;-3.052;2023-06-22T11:55:00;101506.25;;;19.13;33.61
80397;BME280;69721;55.894;-3.052;2023-06-22T11:57:26;101505.68;;;19.61;32.70
80397;BME280;69721;55.894;-3.052;2023-06-22T11:59:51;101513.68;;;21.13;31.98
80397;BME280;69721;55.894;-3.052;2023-06-22T12:02:16;101504.08;;;23.12;29.70
80397;BME280;69721;55.894;-3.052;2023-06-22T12:04:42;101496.99;;;23.97;27.25
80397;BME280;69721;55.894;-3.052;2023-06-22T12:07:07;101495.31;;;24.15;27.93
80397;BME280;69721;55.894;-3.052;2023-06-22T12:09:32;101494.35;;;25.42;28.88
80397;BME280;69721;55.894;-3.052;2023-06-22T12:11:58;101495.71;;;25.23;27.56
80397;BME280;69721;55.894;-3.052;2023-06-22T12:14:23;101500.59;;;23.76;29.01
80397;BME280;69721;55.894;-3.052;2023-06-22T12:16:48;101501.54;;;21.13;29.39
80397;BME280;69721;55.894;-3.052;2023-06-22T12:19:14;101501.55;;;21.10;31.48
80397;BME280;69721;55.894;-3.052;2023-06-22T12:21:39;101506.26;;;19.62;32.06
80397;BME280;69721;55.894;-3.052;2023-06-22T12:24:05;101502.09;;;19.60;33.04
80397;BME280;69721;55.894;-3.052;2023-06-22T12:26:30;101504.51;;;19.94;32.45
80397;BME280;69721;55.894;-3.052;2023-06-22T12:28:55;101505.54;;;18.39;34.47